Terminal Aerodrome Forecast
Issued by NWS

Home | Current Version | Previous Version | Text Only | Print | Product List | Glossary On
Versions: 1 2 3 4 5 6 7 8 9 10 11 12 13 14 15 16 17 18 19 20 21 22 23 24 25 26 27 28 29 30 31 32 33
000
FTUS45 KGJT 280532
TAFCNY
TAF
KCNY 280532Z 2806/2906 03005KT P6SM VCSH SCT110 BKN140
     FM280730 19008KT P6SM VCSH BKN080
      TEMPO 2808/2809 VRB10G20KT -SHRA BKN080 OVC110
     FM281100 VRB03KT P6SM SCT120 BKN150
     FM281800 29007KT P6SM VCSH BKN120
     FM290300 04009KT P6SM SCT120 SCT200=

USA.gov is the U.S. government's official web portal to all federal, state and local government web resources and services.